Estació meteorològica de Cercs - La Baells (Berguedà, Cercs)

Consulta les dades en temps real de l'estació meteorològica de Cercs - La Baells





Hora UTC 19:15
Temperatura 12.6 ºC
Humitat 81.8 %
Pressió 1018.2 hPa
Pluja 3.4 mm
Velocitat vent 0.1 km/h
Direcció vent N

Dades diàries 2026-05-02



Hora UTC (hivern +1h; estiu +2h)
DADES NO VALIDADES
Temperatura (ºC) Humitat (%) Pressió (hPa) Velocitat vent (km/h) Precipitació (mm)
Hora UTC Aire Humitat Pressió Vel. Dir. Vel. Max Dir. Intent. màx 5 min.
00:05 10.6 86.9 1023.2 0.1 SSE 0.2 SSE 0.0
00:10 10.5 87.8 1023.2 0.1 SSE 0.2 SSE 0.0
00:15 10.5 88.0 1023.2 0.1 SE 0.2 SSE 0.0
00:20 10.4 87.5 1023.2 0.1 SSE 0.2 SSE 0.0
00:25 10.4 87.4 1023.2 0.1 SSE 0.2 SSE 0.0
00:30 10.4 87.8 1022.4 0.1 S 0.2 SSE 0.0
00:35 10.4 87.9 1022.2 0.1 S 0.2 SSE 0.0
00:40 10.4 88.1 1022.2 0.1 SSE 0.2 SSE 0.0
00:45 10.4 88.2 1022.2 0.1 SSE 0.2 SSE 0.0
00:50 10.5 87.9 1022.2 0.1 WNW 0.2 SSE 0.0
00:55 10.5 87.8 1022.2 0.1 NNW 0.2 SSE 0.0
01:00 10.6 86.6 1022.2 0.0 W 0.2 SSE 0.0
01:05 10.6 86.0 1022.2 0.0 SW 0.2 SSE 0.0
01:10 10.6 86.0 1022.2 0.0 WSW 0.2 SSE 0.0
01:15 10.6 86.0 1022.2 0.0 W 0.2 SSE 0.0
01:20 10.7 86.4 1022.2 0.9 NW 0.9 NW 0.0
01:25 10.8 86.6 1022.2 1.4 NW 1.4 NW 0.0
01:30 10.8 85.7 1022.2 1.3 NNW 1.4 NW 0.0
01:35 10.8 85.4 1022.2 1.2 NNW 1.4 NW 0.0
01:40 10.8 85.1 1022.2 1.4 NNW 1.4 NW 0.0
01:45 10.8 85.0 1022.2 1.4 NNW 1.4 NNW 0.0
01:50 10.9 85.1 1022.2 0.8 NNW 1.4 NNW 0.0
01:55 10.9 85.1 1022.2 0.6 NW 1.4 NNW 0.0
01:55 10.9 85.1 1022.2 0.6 NW 1.4 NNW 0.0
01:55 10.9 85.1 1022.2 0.6 NW 1.4 NNW 0.0
02:15 11.1 83.6 1022.2 1.5 NNW 1.5 NNW 0.0
02:20 11.1 83.7 1021.5 0.8 NNW 1.5 NNW 0.0
02:25 11.2 83.7 1021.2 0.5 NNW 1.5 NNW 0.0
02:30 11.2 83.1 1021.2 1.8 NNW 1.8 NNW 0.0
02:35 11.2 82.9 1021.2 2.1 NNW 2.1 NNW 0.0
02:40 11.2 83.0 1021.2 2.5 NNW 2.5 NNW 0.0
02:45 11.2 83.0 1021.2 2.7 NNW 2.7 NNW 0.0
02:50 11.3 81.9 1021.2 2.8 NNW 2.8 NNW 0.0
02:55 11.3 81.6 1021.2 2.8 NNW 2.8 NNW 0.0
03:00 11.3 81.5 1021.2 2.6 NW 2.8 NNW 0.0
03:05 11.3 81.4 1021.2 2.5 NW 2.8 NNW 0.0
03:10 11.4 80.6 1021.2 1.7 NW 2.8 NNW 0.0
03:15 11.4 80.4 1021.2 1.5 NW 2.8 NNW 0.0
03:20 11.5 79.7 1021.2 2.4 NW 2.8 NNW 0.0
03:25 11.5 79.3 1021.2 2.9 NW 2.9 NW 0.0
03:30 11.6 78.6 1021.2 2.1 NNW 2.9 NW 0.0
03:35 11.6 78.4 1021.2 1.9 NNW 2.9 NW 0.0
03:40 11.7 78.1 1021.2 2.0 NNW 2.9 NW 0.0
03:45 11.8 77.9 1021.2 2.1 NNW 2.9 NW 0.0
03:50 11.8 78.6 1021.2 2.6 NNW 2.9 NW 0.0
03:55 11.8 78.8 1021.2 2.8 NNW 2.9 NW 0.0
04:00 11.7 79.2 1021.2 2.3 NNW 2.9 NW 0.0
04:05 11.7 79.4 1021.2 2.1 NNW 2.9 NW 0.0
04:10 11.7 80.3 1021.2 1.1 NNW 2.9 NW 0.0
04:15 11.7 80.5 1021.2 0.8 NNW 2.9 NW 0.0
04:20 11.7 81.2 1021.2 0.4 NNW 2.9 NW 0.0
04:25 11.7 81.5 1021.2 0.2 NW 2.9 NW 0.0
04:30 11.7 79.9 1021.2 1.0 NNW 2.9 NW 0.0
04:35 11.7 79.4 1021.2 1.2 NNW 2.9 NW 0.0
04:40 11.8 80.6 1021.2 0.7 NNW 2.9 NW 0.0
04:45 11.9 81.3 1021.2 0.5 NNW 2.9 NW 0.0
04:50 11.9 80.6 1021.2 0.7 NNW 2.9 NW 0.0
04:55 11.9 80.4 1021.2 0.8 NNW 2.9 NW 0.0
05:00 11.9 79.5 1021.2 1.8 NNW 2.9 NW 0.0
05:05 11.9 79.0 1021.2 2.4 NNW 2.9 NW 0.0
05:10 11.9 78.1 1021.2 2.6 NNW 2.9 NW 0.0
05:15 11.9 77.9 1021.2 2.7 NNW 2.9 NW 0.0
05:20 11.9 80.6 1021.2 1.4 NNW 2.9 NW 0.0
05:25 11.9 81.3 1021.2 1.1 NNW 2.9 NW 0.0
05:30 11.9 79.9 1021.2 1.4 NNW 2.9 NW 0.0
05:35 11.9 79.5 1021.2 1.5 NNW 2.9 NW 0.0
05:40 11.9 80.3 1021.2 0.5 NNW 2.9 NW 0.0
05:45 11.9 80.5 1021.2 0.2 NNW 2.9 NW 0.0
05:50 11.9 79.8 1021.2 0.1 S 2.9 NW 0.0
05:55 11.9 79.6 1021.2 0.1 SE 2.9 NW 0.0
05:55 11.9 79.6 1021.2 0.1 SE 2.9 NW 0.0
06:00 11.9 79.5 1021.2 0.1 ESE 2.9 NW 0.0
06:10 11.9 79.0 1021.2 0.2 NNE 2.9 NW 0.0
06:15 11.9 78.8 1021.2 0.2 NNE 2.9 NW 0.0
06:20 11.9 78.3 1021.2 0.5 WSW 2.9 NW 0.0
06:25 11.9 78.2 1021.2 0.6 NW 2.9 NW 0.0
06:30 12.0 80.6 1021.2 0.2 W 2.9 NW 0.0
06:35 12.1 81.3 1021.2 0.0 W 2.9 NW 0.1
06:40 12.0 81.7 1021.2 0.1 S 2.9 NW 0.2
06:45 12.0 81.8 1021.2 0.1 SSE 2.9 NW 0.0
06:50 11.8 83.6 1021.2 0.1 WNW 2.9 NW 0.0
06:55 11.7 84.1 1021.2 0.1 NW 2.9 NW 0.0
07:00 11.4 86.5 1021.2 0.1 SE 2.9 NW 0.0
07:05 11.4 87.1 1021.2 0.1 ENE 2.9 NW 0.0
07:10 11.3 89.3 1021.2 0.2 ENE 2.9 NW 0.0
07:15 11.2 89.9 1021.2 0.2 ENE 2.9 NW 0.0
07:20 11.2 91.2 1022.0 0.3 SW 2.9 NW 0.1
07:25 11.2 91.5 1022.2 0.3 W 2.9 NW 0.1
07:30 11.2 92.3 1022.2 0.2 W 2.9 NW 0.2
07:35 11.2 92.5 1022.2 0.2 WSW 2.9 NW 0.2
07:40 11.2 93.0 1022.2 0.2 SE 2.9 NW 0.4
07:45 11.2 93.1 1022.2 0.2 ESE 2.9 NW 0.4
07:50 11.2 93.5 1021.5 0.1 ESE 2.9 NW 0.4
07:55 11.2 93.6 1021.2 0.1 ESE 2.9 NW 0.1
08:00 11.2 94.2 1021.2 0.1 ESE 2.9 NW 0.1
08:05 11.2 94.3 1021.2 0.0 ESE 2.9 NW 0.0
08:10 11.1 94.2 1021.2 0.1 E 2.9 NW 0.0
08:15 11.1 94.1 1021.2 0.1 ENE 2.9 NW 0.1
08:20 11.1 94.5 1022.0 0.1 E 2.9 NW 0.0
08:25 11.2 94.6 1022.2 0.1 E 2.9 NW 0.0
08:30 11.2 94.9 1022.2 0.1 E 2.9 NW 0.0
08:35 11.2 95.0 1022.2 0.1 E 2.9 NW 0.1
08:40 11.2 95.2 1022.2 0.2 ENE 2.9 NW 0.0
08:45 11.2 95.2 1022.2 0.2 NE 2.9 NW 0.0
08:50 11.2 95.3 1022.2 0.2 NE 2.9 NW 0.0
08:55 11.2 95.3 1022.2 0.2 NE 2.9 NW 0.0
09:00 11.4 95.6 1022.2 0.2 NE 2.9 NW 0.1
09:05 11.4 95.7 1022.2 0.2 NE 2.9 NW 0.0
09:10 11.5 95.8 1022.2 0.2 NE 2.9 NW 0.1
09:15 11.5 95.9 1022.2 0.2 NE 2.9 NW 0.1
09:20 11.5 96.1 1022.2 0.2 NNE 2.9 NW 0.0
09:25 11.5 96.1 1022.2 0.2 NNE 2.9 NW 0.2
09:30 11.4 96.1 1022.2 0.1 SSW 2.9 NW 0.1
09:35 11.4 96.1 1022.2 0.1 WNW 2.9 NW 0.1
09:40 11.4 96.3 1022.2 0.1 NNW 2.9 NW 0.0
09:45 11.5 96.3 1022.2 0.2 NNW 2.9 NW 0.1
09:50 11.3 96.2 1022.2 0.2 NW 2.9 NW 0.0
09:55 11.3 96.1 1022.2 0.2 WNW 2.9 NW 0.0
10:00 11.3 96.2 1022.2 0.2 W 2.9 NW 0.0
10:05 11.3 96.2 1022.2 0.2 W 2.9 NW 0.1
10:10 11.4 96.2 1022.2 0.2 W 2.9 NW 0.0
10:15 11.4 96.2 1022.2 0.2 W 2.9 NW 0.0
10:20 11.4 96.2 1022.2 0.2 W 2.9 NW 0.0
10:25 11.4 96.2 1022.2 0.2 W 2.9 NW 0.0
10:30 11.5 96.3 1022.2 0.2 WNW 2.9 NW 0.0
10:35 11.6 96.3 1022.2 0.1 WNW 2.9 NW 0.0
10:40 11.6 96.1 1022.2 0.2 WNW 2.9 NW 0.0
10:45 11.6 96.1 1022.2 0.2 WNW 2.9 NW 0.0
10:50 11.5 95.8 1022.2 0.2 WNW 2.9 NW 0.0
10:55 11.5 95.7 1022.2 0.2 WNW 2.9 NW 0.0
11:00 11.7 95.8 1021.4 0.2 WNW 2.9 NW 0.0
11:05 11.7 95.8 1021.2 0.2 WNW 2.9 NW 0.0
11:10 11.7 95.7 1021.2 0.1 W 2.9 NW 0.0
11:15 11.8 95.7 1021.2 0.1 WSW 2.9 NW 0.0
11:20 11.9 95.9 1021.2 0.2 NNW 2.9 NW 0.0
11:25 11.9 96.0 1021.2 0.2 N 2.9 NW 0.0
11:30 11.7 94.7 1021.2 0.1 N 2.9 NW 0.0
11:35 11.5 94.0 1021.2 0.0 NNW 2.9 NW 0.0
11:40 10.9 87.3 1021.2 0.1 SW 2.9 NW 0.0
11:45 10.7 85.5 1021.2 0.2 S 2.9 NW 0.0
11:50 10.8 85.3 1021.2 0.2 SSE 2.9 NW 0.0
11:55 10.9 85.2 1021.2 0.2 SSE 2.9 NW 0.0
12:00 11.1 86.7 1021.2 0.1 SSE 2.9 NW 0.0
12:05 11.2 87.1 1021.2 0.1 SSE 2.9 NW 0.0
12:10 11.3 86.6 1021.2 0.1 SE 2.9 NW 0.0
12:15 11.3 86.4 1021.2 0.2 ESE 2.9 NW 0.0
12:20 11.4 86.2 1021.2 0.2 ESE 2.9 NW 0.0
12:25 11.5 86.2 1021.2 0.2 ESE 2.9 NW 0.0
12:30 11.5 86.3 1021.2 0.2 ESE 2.9 NW 0.0
12:35 11.5 86.3 1021.2 0.2 SE 2.9 NW 0.0
12:40 11.7 86.8 1021.2 0.2 ESE 2.9 NW 0.0
12:45 11.7 87.0 1021.2 0.2 ESE 2.9 NW 0.0
12:50 11.8 87.3 1021.2 0.1 SE 2.9 NW 0.0
12:55 11.9 87.4 1021.2 0.1 SSE 2.9 NW 0.0
13:00 11.8 86.5 1020.4 0.1 SSE 2.9 NW 0.0
13:05 11.8 86.3 1020.2 0.1 SSE 2.9 NW 0.0
13:10 11.9 86.1 1020.2 0.1 SE 2.9 NW 0.0
13:15 11.9 86.0 1020.2 0.1 SE 2.9 NW 0.0
13:20 12.0 85.6 1020.2 0.2 SE 2.9 NW 0.0
13:25 12.1 85.5 1020.2 0.2 SE 2.9 NW 0.0
13:30 12.3 84.8 1020.2 0.1 ESE 2.9 NW 0.0
13:35 12.3 84.6 1020.2 0.1 ESE 2.9 NW 0.0
13:40 12.4 83.5 1020.2 0.1 ESE 2.9 NW 0.0
13:45 12.5 83.2 1020.2 0.1 ESE 2.9 NW 0.0
13:50 12.6 84.1 1020.2 0.1 SSE 2.9 NW 0.0
13:55 12.6 84.3 1020.2 0.1 SSE 2.9 NW 0.0
14:00 12.9 84.3 1020.2 0.0 E 2.9 NW 0.0
14:05 13.0 84.3 1020.2 0.0 ENE 2.9 NW 0.0
14:10 12.9 83.0 1020.2 0.4 W 2.9 NW 0.0
14:15 12.9 82.7 1020.2 0.5 NW 2.9 NW 0.0
14:20 12.8 82.2 1020.2 1.0 NW 2.9 NW 0.0
14:25 12.8 82.0 1020.2 1.2 NW 2.9 NW 0.0
14:30 12.7 81.8 1020.2 1.2 NW 2.9 NW 0.0
14:35 12.7 81.8 1020.2 1.2 NW 2.9 NW 0.0
14:40 12.9 80.5 1019.4 1.5 NW 2.9 NW 0.0
14:45 12.9 80.1 1019.2 1.5 NW 2.9 NW 0.0
14:50 13.0 79.0 1019.2 1.7 NW 2.9 NW 0.0
14:55 13.1 78.8 1019.2 1.7 NW 2.9 NW 0.0
15:00 13.4 76.6 1019.2 1.5 NW 2.9 NW 0.0
15:05 13.4 76.0 1019.2 1.4 NW 2.9 NW 0.0
15:10 13.6 74.4 1019.2 1.6 NW 2.9 NW 0.0
15:15 13.7 73.9 1019.2 1.6 NW 2.9 NW 0.0
15:20 13.7 73.6 1019.2 1.6 NW 2.9 NW 0.0
15:25 13.7 73.5 1019.2 1.7 NW 2.9 NW 0.0
15:30 13.7 73.5 1019.2 2.1 NW 2.9 NW 0.0
15:35 13.7 73.6 1019.2 2.3 NW 2.9 NW 0.0
15:40 13.6 74.3 1019.2 2.8 NW 2.9 NW 0.0
15:45 13.5 74.6 1019.2 3.0 NW 3.0 NW 0.0
15:50 13.5 76.6 1019.2 2.3 NW 3.0 NW 0.0
15:55 13.5 77.2 1019.2 2.1 NW 3.0 NW 0.0
16:00 13.4 76.3 1019.2 2.6 NW 3.0 NW 0.0
16:05 13.4 75.9 1019.2 2.8 NW 3.0 NW 0.0
16:10 13.3 75.4 1019.2 2.7 NW 3.0 NW 0.0
16:15 13.3 75.2 1019.2 2.7 NW 3.0 NW 0.0
16:20 13.3 74.9 1018.5 3.0 NW 3.0 NW 0.0
16:25 13.2 74.8 1018.2 3.1 NW 3.1 NW 0.0
16:30 13.2 76.0 1018.2 2.6 NW 3.1 NW 0.0
16:35 13.2 76.3 1018.2 2.5 NW 3.1 NW 0.0
16:40 13.2 75.1 1018.9 2.7 NW 3.1 NW 0.0
16:45 13.2 74.4 1019.2 2.8 NW 3.1 NW 0.0
16:50 13.2 73.5 1018.4 3.0 NW 3.1 NW 0.0
16:55 13.2 73.3 1018.2 3.0 NW 3.1 NW 0.0
17:00 13.2 73.7 1018.2 3.3 NW 3.3 NW 0.0
17:05 13.2 74.0 1018.2 3.5 NW 3.5 NW 0.0
17:10 13.2 73.6 1018.2 2.4 NW 3.5 NW 0.0
17:15 13.2 73.4 1018.2 2.2 NW 3.5 NW 0.0
17:20 13.3 73.3 1018.2 0.9 WNW 3.5 NW 0.0
17:25 13.4 73.3 1018.2 0.3 WNW 3.5 NW 0.0
17:30 13.3 74.7 1018.2 0.6 NW 3.5 NW 0.0
17:35 13.3 75.1 1018.2 0.7 NW 3.5 NW 0.0
17:40 13.3 76.2 1017.5 0.5 NW 3.5 NW 0.0
17:45 13.2 76.7 1017.2 0.4 NNW 3.5 NW 0.0
17:50 13.2 77.4 1017.2 1.5 NW 3.5 NW 0.0
17:55 13.2 77.6 1017.2 1.9 NW 3.5 NW 0.0
18:00 13.1 78.9 1017.2 0.8 NW 3.5 NW 0.0
18:05 13.1 79.6 1017.2 0.3 NNW 3.5 NW 0.0
18:10 13.0 80.1 1017.2 0.3 NNW 3.5 NW 0.0
18:15 13.0 80.3 1017.2 0.3 NNW 3.5 NW 0.0
18:20 12.9 80.3 1017.2 0.5 NW 3.5 NW 0.0
18:25 12.9 80.3 1017.2 0.7 WNW 3.5 NW 0.0
18:30 12.9 80.6 1017.2 0.3 NW 3.5 NW 0.0
18:35 12.9 80.7 1017.2 0.2 NW 3.5 NW 0.0
18:40 12.8 81.5 1017.9 0.2 NW 3.5 NW 0.0
18:45 12.7 81.9 1018.2 0.2 NW 3.5 NW 0.0
18:50 12.7 80.6 1017.4 0.6 NW 3.5 NW 0.0
18:55 12.7 80.3 1017.2 0.7 NW 3.5 NW 0.0
19:00 12.7 80.9 1017.9 0.3 NW 3.5 NW 0.0
19:05 12.7 81.2 1018.2 0.1 NW 3.5 NW 0.0
19:10 12.6 81.7 1018.2 0.1 ENE 3.5 NW 0.0
19:15 12.6 81.8 1018.2 0.1 N 3.5 NW 0.0
Màxima 13.7 96.3 1023.2 3.5 NW 3.5 NW 0.4
Mínima 10.4 73.3 1017.2
Total 3.4